Killeen — WDF3110 — position and weather

sailwx.info

Track history (hours):
 
Tides and Currents Weather Stations Pressure Air Temp Water Temp Dewpoint Dewpoint Depression Visibility Wind Speed Wind Dir Waves Ship Positions

Killeen

Owner: C Ray Inc, San Diego, CA. More information available from US FCC via Universal Licensing System and Coast Guard Vessel Documentation Center.

Last reported at 2016-May-27 01:33 UTC. Time now 2016-May-27 02:17 UTC.
Position N 32°42' W 117°14'.

Length 18 m; draft 2.5 m.

Type: Towing. MMSI: 367435980.

Date/timePositionNaut miles runAvg speedWind from/ knotsBaromVisibWave heightAir tempDewpointWater temp
2016-May-27 01:33N 32°42' W 117°14'1 0.7
2016-May-27 00:33N 32°43' W 117°13'4 4.0
2016-May-26 23:33N 32°42' W 117°09'0 0.0
2016-May-26 13:24N 32°42' W 117°09'5 5.3
2016-May-26 12:33N 32°42' W 117°14'0 0.5
2016-May-26 11:33N 32°42' W 117°14'0 0.0
2016-May-26 10:33N 32°42' W 117°14'0 0.0
2016-May-26 09:33N 32°42' W 117°14'0 0.0
2016-May-26 08:33N 32°42' W 117°14'0 0.0
2016-May-26 07:33N 32°42' W 117°14'0 0.0
2016-May-26 06:33N 32°42' W 117°14'0 0.0
2016-May-26 05:33N 32°42' W 117°14'0 0.0
2016-May-26 04:33N 32°42' W 117°14'0 0.0
2016-May-26 03:33N 32°42' W 117°14'0 0.0
2016-May-26 02:33N 32°42' W 117°14'0 0.3
2016-May-26 01:33N 32°42' W 117°14'0 0.2
2016-May-26 00:30N 32°42' W 117°14'0 0.0
2016-May-25 23:25N 32°42' W 117°14'4 4.1
2016-May-25 22:33N 32°42' W 117°10'1 0.1
2016-May-25 13:17N 32°42' W 117°09'4 5.9
2016-May-25 12:33N 32°42' W 117°14'0 0.3
2016-May-25 11:33N 32°42' W 117°14'0 0.0
2016-May-25 10:33N 32°42' W 117°14'0 0.0
2016-May-25 09:33N 32°42' W 117°14'0 0.0
2016-May-25 08:33N 32°42' W 117°14'0 0.0
2016-May-25 07:33N 32°42' W 117°14'0 0.0
2016-May-25 06:33N 32°42' W 117°14'0 0.0
2016-May-25 05:33N 32°42' W 117°14'0 0.0
2016-May-25 04:34N 32°42' W 117°14'0 0.0
2016-May-25 03:33N 32°42' W 117°14'0 0.0
2016-May-25 02:33N 32°42' W 117°14'0 0.0
2016-May-25 01:33N 32°42' W 117°14'2 2.3
2016-May-25 00:33N 32°43' W 117°11'3 2.6
2016-May-24 23:33N 32°41' W 117°10'1 0.5
2016-May-24 22:34N 32°41' W 117°09'1 0.1
2016-May-24 12:13N 32°42' W 117°09'1 1.7
2016-May-24 11:34N 32°41' W 117°10'0 0.1
2016-May-24 10:33N 32°41' W 117°10'0 0.0
2016-May-24 09:33N 32°41' W 117°10'0 0.0
2016-May-24 08:33N 32°41' W 117°10'0 0.0
2016-May-24 07:33N 32°41' W 117°10'0 0.1
2016-May-24 06:33N 32°41' W 117°10'0 0.1
2016-May-24 05:33N 32°41' W 117°10'0 0.0
2016-May-24 04:33N 32°41' W 117°10'0 0.0
2016-May-24 03:33N 32°41' W 117°10'0 0.0
2016-May-24 02:33N 32°41' W 117°10'0 0.0
2016-May-24 01:33N 32°41' W 117°10'0 0.3
2016-May-24 00:33N 32°41' W 117°10'0 0.0
2016-May-23 23:33N 32°41' W 117°10'1 1.3
2016-May-23 22:33N 32°42' W 117°09'0 0.0
2016-May-23 07:14N 32°42' W 117°09'1 1.7
2016-May-23 06:33N 32°41' W 117°10'0 0.0
2016-May-23 05:33N 32°41' W 117°10'0 0.1
2016-May-23 04:33N 32°41' W 117°10'0 0.0
2016-May-23 03:33N 32°41' W 117°10'0 0.0
2016-May-23 02:34N 32°41' W 117°10'0 0.1
2016-May-23 01:34N 32°41' W 117°10'0 0.0
2016-May-23 00:33N 32°41' W 117°10'0 0.0
2016-May-22 10:33N 32°41' W 117°10'0 0.1
2016-May-22 09:33N 32°41' W 117°10'0 0.0
2016-May-22 08:33N 32°41' W 117°10'0 0.0
2016-May-22 07:33N 32°41' W 117°10'0 0.0
2016-May-22 06:33N 32°41' W 117°10'0 0.1
2016-May-22 05:33N 32°41' W 117°10'0 0.1
2016-May-22 04:33N 32°41' W 117°10'0 0.2
2016-May-22 03:33N 32°41' W 117°10'1 1.0
2016-May-22 02:33N 32°41' W 117°09'1 1.0
2016-May-22 01:33N 32°41' W 117°10'0 0.4
2016-May-22 00:33N 32°41' W 117°09'1 0.7
2016-May-21 23:33N 32°42' W 117°09'  
2016-May-18 14:33N 32°42' W 117°09'0 0.0
2016-May-18 13:33N 32°42' W 117°09'0 0.0
2016-May-18 12:33N 32°42' W 117°09'0 0.0
2016-May-18 11:33N 32°42' W 117°09'0 0.0
2016-May-18 10:33N 32°42' W 117°09'0 0.0
2016-May-18 09:33N 32°42' W 117°09'0 0.0
2016-May-18 08:33N 32°42' W 117°09'0 0.0
2016-May-18 07:33N 32°42' W 117°09'0 0.0
2016-May-18 06:33N 32°42' W 117°09'0 0.0
2016-May-18 05:28N 32°42' W 117°09'0 0.0
2016-May-18 04:33N 32°42' W 117°09'0 0.0
2016-May-18 03:33N 32°42' W 117°09'0 0.0
2016-May-18 02:33N 32°42' W 117°09'0 0.0
2016-May-18 01:33N 32°42' W 117°09'0 0.0
2016-May-18 00:33N 32°42' W 117°09'0 0.0
2016-May-17 23:33N 32°42' W 117°09'0 0.0
2016-May-17 22:33N 32°42' W 117°09'0 0.0
2016-May-17 21:32N 32°42' W 117°09'0 0.0
2016-May-17 20:33N 32°42' W 117°09'0 0.0
2016-May-17 19:33N 32°42' W 117°09'0 0.0
2016-May-17 18:33N 32°42' W 117°09'0 0.0
2016-May-17 17:33N 32°42' W 117°09'  
Track history (hours):
 
Tides and Currents Weather Stations Pressure Air Temp Water Temp Dewpoint Dewpoint Depression Visibility Wind Speed Wind Dir Waves Ship Positions

Killeen

Owner: C Ray Inc, San Diego, CA. More information available from US FCC via Universal Licensing System and Coast Guard Vessel Documentation Center.

Last reported at 2016-May-27 01:33 UTC. Time now 2016-May-27 02:17 UTC.
Position N 32°42' W 117°14'.

Length 18 m; draft 2.5 m.

Type: Towing. MMSI: 367435980.

Date/timePositionNaut miles runAvg speedWind from/ knotsBaromVisibWave heightAir tempDewpointWater temp
2016-May-27 01:33N 32°42' W 117°14'1 0.7
2016-May-27 00:33N 32°43' W 117°13'4 4.0
2016-May-26 23:33N 32°42' W 117°09'0 0.0
2016-May-26 13:24N 32°42' W 117°09'5 5.3
2016-May-26 12:33N 32°42' W 117°14'0 0.5
2016-May-26 11:33N 32°42' W 117°14'0 0.0
2016-May-26 10:33N 32°42' W 117°14'0 0.0
2016-May-26 09:33N 32°42' W 117°14'0 0.0
2016-May-26 08:33N 32°42' W 117°14'0 0.0
2016-May-26 07:33N 32°42' W 117°14'0 0.0
2016-May-26 06:33N 32°42' W 117°14'0 0.0
2016-May-26 05:33N 32°42' W 117°14'0 0.0
2016-May-26 04:33N 32°42' W 117°14'0 0.0
2016-May-26 03:33N 32°42' W 117°14'0 0.0
2016-May-26 02:33N 32°42' W 117°14'0 0.3
2016-May-26 01:33N 32°42' W 117°14'0 0.2
2016-May-26 00:30N 32°42' W 117°14'0 0.0
2016-May-25 23:25N 32°42' W 117°14'4 4.1
2016-May-25 22:33N 32°42' W 117°10'1 0.1
2016-May-25 13:17N 32°42' W 117°09'4 5.9
2016-May-25 12:33N 32°42' W 117°14'0 0.3
2016-May-25 11:33N 32°42' W 117°14'0 0.0
2016-May-25 10:33N 32°42' W 117°14'0 0.0
2016-May-25 09:33N 32°42' W 117°14'0 0.0
2016-May-25 08:33N 32°42' W 117°14'0 0.0
2016-May-25 07:33N 32°42' W 117°14'0 0.0
2016-May-25 06:33N 32°42' W 117°14'0 0.0
2016-May-25 05:33N 32°42' W 117°14'0 0.0
2016-May-25 04:34N 32°42' W 117°14'0 0.0
2016-May-25 03:33N 32°42' W 117°14'0 0.0
2016-May-25 02:33N 32°42' W 117°14'0 0.0
2016-May-25 01:33N 32°42' W 117°14'2 2.3
2016-May-25 00:33N 32°43' W 117°11'3 2.6
2016-May-24 23:33N 32°41' W 117°10'1 0.5
2016-May-24 22:34N 32°41' W 117°09'1 0.1
2016-May-24 12:13N 32°42' W 117°09'1 1.7
2016-May-24 11:34N 32°41' W 117°10'0 0.1
2016-May-24 10:33N 32°41' W 117°10'0 0.0
2016-May-24 09:33N 32°41' W 117°10'0 0.0
2016-May-24 08:33N 32°41' W 117°10'0 0.0
2016-May-24 07:33N 32°41' W 117°10'0 0.1
2016-May-24 06:33N 32°41' W 117°10'0 0.1
2016-May-24 05:33N 32°41' W 117°10'0 0.0
2016-May-24 04:33N 32°41' W 117°10'0 0.0
2016-May-24 03:33N 32°41' W 117°10'0 0.0
2016-May-24 02:33N 32°41' W 117°10'0 0.0
2016-May-24 01:33N 32°41' W 117°10'0 0.3
2016-May-24 00:33N 32°41' W 117°10'0 0.0
2016-May-23 23:33N 32°41' W 117°10'1 1.3
2016-May-23 22:33N 32°42' W 117°09'0 0.0
2016-May-23 07:14N 32°42' W 117°09'1 1.7
2016-May-23 06:33N 32°41' W 117°10'0 0.0
2016-May-23 05:33N 32°41' W 117°10'0 0.1
2016-May-23 04:33N 32°41' W 117°10'0 0.0
2016-May-23 03:33N 32°41' W 117°10'0 0.0
2016-May-23 02:34N 32°41' W 117°10'0 0.1
2016-May-23 01:34N 32°41' W 117°10'0 0.0
2016-May-23 00:33N 32°41' W 117°10'0 0.0
2016-May-22 10:33N 32°41' W 117°10'0 0.1
2016-May-22 09:33N 32°41' W 117°10'0 0.0
2016-May-22 08:33N 32°41' W 117°10'0 0.0
2016-May-22 07:33N 32°41' W 117°10'0 0.0
2016-May-22 06:33N 32°41' W 117°10'0 0.1
2016-May-22 05:33N 32°41' W 117°10'0 0.1
2016-May-22 04:33N 32°41' W 117°10'0 0.2
2016-May-22 03:33N 32°41' W 117°10'1 1.0
2016-May-22 02:33N 32°41' W 117°09'1 1.0
2016-May-22 01:33N 32°41' W 117°10'0 0.4
2016-May-22 00:33N 32°41' W 117°09'1 0.7
2016-May-21 23:33N 32°42' W 117°09'  
2016-May-18 14:33N 32°42' W 117°09'0 0.0
2016-May-18 13:33N 32°42' W 117°09'0 0.0
2016-May-18 12:33N 32°42' W 117°09'0 0.0
2016-May-18 11:33N 32°42' W 117°09'0 0.0
2016-May-18 10:33N 32°42' W 117°09'0 0.0
2016-May-18 09:33N 32°42' W 117°09'0 0.0
2016-May-18 08:33N 32°42' W 117°09'0 0.0
2016-May-18 07:33N 32°42' W 117°09'0 0.0
2016-May-18 06:33N 32°42' W 117°09'0 0.0
2016-May-18 05:28N 32°42' W 117°09'0 0.0
2016-May-18 04:33N 32°42' W 117°09'0 0.0
2016-May-18 03:33N 32°42' W 117°09'0 0.0
2016-May-18 02:33N 32°42' W 117°09'0 0.0
2016-May-18 01:33N 32°42' W 117°09'0 0.0
2016-May-18 00:33N 32°42' W 117°09'0 0.0
2016-May-17 23:33N 32°42' W 117°09'0 0.0
2016-May-17 22:33N 32°42' W 117°09'0 0.0
2016-May-17 21:32N 32°42' W 117°09'0 0.0
2016-May-17 20:33N 32°42' W 117°09'0 0.0
2016-May-17 19:33N 32°42' W 117°09'0 0.0
2016-May-17 18:33N 32°42' W 117°09'0 0.0
2016-May-17 17:33N 32°42' W 117°09'  

Dump ship's entire track history